sensor_id;sensor_type;location;lat;lon;timestamp;P1;durP1;ratioP1;P2;durP2;ratioP2
10731;SDS011;74907;42.812;23.216;2024-03-25T00:00:19;0.20;;;0.20;;
10731;SDS011;74907;42.812;23.216;2024-03-25T00:02:47;0.40;;;0.40;;
10731;SDS011;74907;42.812;23.216;2024-03-25T00:05:15;3.13;;;2.30;;
10731;SDS011;74907;42.812;23.216;2024-03-25T00:07:47;1.30;;;1.20;;
10731;SDS011;74907;42.812;23.216;2024-03-25T00:10:13;0.70;;;0.70;;
10731;SDS011;74907;42.812;23.216;2024-03-25T00:12:39;0.43;;;0.43;;
10731;SDS011;74907;42.812;23.216;2024-03-25T00:15:05;0.30;;;0.30;;
10731;SDS011;74907;42.812;23.216;2024-03-25T00:17:33;0.20;;;0.20;;
10731;SDS011;74907;42.812;23.216;2024-03-25T00:19:59;0.23;;;0.23;;
10731;SDS011;74907;42.812;23.216;2024-03-25T00:22:27;0.20;;;0.20;;
10731;SDS011;74907;42.812;23.216;2024-03-25T00:24:53;0.33;;;0.33;;
10731;SDS011;74907;42.812;23.216;2024-03-25T00:27:19;0.53;;;0.50;;
10731;SDS011;74907;42.812;23.216;2024-03-25T00:29:45;0.60;;;0.60;;
10731;SDS011;74907;42.812;23.216;2024-03-25T00:32:12;1.30;;;0.60;;
10731;SDS011;74907;42.812;23.216;2024-03-25T00:34:37;0.63;;;0.57;;
10731;SDS011;74907;42.812;23.216;2024-03-25T00:37:04;0.50;;;0.40;;
10731;SDS011;74907;42.812;23.216;2024-03-25T00:39:31;0.50;;;0.50;;
10731;SDS011;74907;42.812;23.216;2024-03-25T00:41:59;0.67;;;0.67;;
10731;SDS011;74907;42.812;23.216;2024-03-25T00:44:25;0.70;;;0.70;;
10731;SDS011;74907;42.812;23.216;2024-03-25T00:46:52;0.57;;;0.50;;
10731;SDS011;74907;42.812;23.216;2024-03-25T00:49:18;0.70;;;0.70;;
10731;SDS011;74907;42.812;23.216;2024-03-25T00:51:44;0.50;;;0.50;;
10731;SDS011;74907;42.812;23.216;2024-03-25T00:54:10;0.70;;;0.70;;
10731;SDS011;74907;42.812;23.216;2024-03-25T00:56:38;0.60;;;0.60;;
10731;SDS011;74907;42.812;23.216;2024-03-25T00:59:04;0.60;;;0.60;;
10731;SDS011;74907;42.812;23.216;2024-03-25T01:01:31;0.30;;;0.30;;
10731;SDS011;74907;42.812;23.216;2024-03-25T01:03:57;0.40;;;0.40;;
10731;SDS011;74907;42.812;23.216;2024-03-25T01:06:24;0.30;;;0.30;;
10731;SDS011;74907;42.812;23.216;2024-03-25T01:08:50;0.30;;;0.30;;
10731;SDS011;74907;42.812;23.216;2024-03-25T01:11:17;0.50;;;0.50;;
10731;SDS011;74907;42.812;23.216;2024-03-25T01:13:44;0.23;;;0.23;;
10731;SDS011;74907;42.812;23.216;2024-03-25T01:16:11;0.20;;;0.20;;
10731;SDS011;74907;42.812;23.216;2024-03-25T01:18:37;0.27;;;0.27;;
10731;SDS011;74907;42.812;23.216;2024-03-25T01:21:04;0.20;;;0.20;;
10731;SDS011;74907;42.812;23.216;2024-03-25T01:23:30;0.20;;;0.20;;
10731;SDS011;74907;42.812;23.216;2024-03-25T01:25:56;0.30;;;0.30;;
10731;SDS011;74907;42.812;23.216;2024-03-25T01:28:22;0.33;;;0.33;;
10731;SDS011;74907;42.812;23.216;2024-03-25T01:30:50;0.67;;;0.40;;
10731;SDS011;74907;42.812;23.216;2024-03-25T01:33:16;0.33;;;0.33;;
10731;SDS011;74907;42.812;23.216;2024-03-25T01:35:43;0.47;;;0.47;;
10731;SDS011;74907;42.812;23.216;2024-03-25T01:38:08;0.57;;;0.57;;
10731;SDS011;74907;42.812;23.216;2024-03-25T01:40:36;0.40;;;0.40;;
10731;SDS011;74907;42.812;23.216;2024-03-25T01:43:02;0.40;;;0.40;;
10731;SDS011;74907;42.812;23.216;2024-03-25T01:45:29;0.30;;;0.30;;
10731;SDS011;74907;42.812;23.216;2024-03-25T01:47:58;0.40;;;0.40;;
10731;SDS011;74907;42.812;23.216;2024-03-25T01:50:27;0.30;;;0.30;;
10731;SDS011;74907;42.812;23.216;2024-03-25T01:52:54;0.37;;;0.33;;
10731;SDS011;74907;42.812;23.216;2024-03-25T01:55:23;0.20;;;0.20;;
10731;SDS011;74907;42.812;23.216;2024-03-25T01:57:51;0.30;;;0.30;;
10731;SDS011;74907;42.812;23.216;2024-03-25T02:00:18;0.40;;;0.40;;
10731;SDS011;74907;42.812;23.216;2024-03-25T02:02:46;0.30;;;0.30;;
10731;SDS011;74907;42.812;23.216;2024-03-25T02:05:14;0.30;;;0.30;;
10731;SDS011;74907;42.812;23.216;2024-03-25T02:07:40;0.30;;;0.30;;
10731;SDS011;74907;42.812;23.216;2024-03-25T02:10:08;0.30;;;0.30;;
10731;SDS011;74907;42.812;23.216;2024-03-25T02:12:35;0.30;;;0.30;;
10731;SDS011;74907;42.812;23.216;2024-03-25T02:15:02;0.20;;;0.20;;
10731;SDS011;74907;42.812;23.216;2024-03-25T02:17:29;0.20;;;0.20;;
10731;SDS011;74907;42.812;23.216;2024-03-25T02:19:56;0.30;;;0.30;;
10731;SDS011;74907;42.812;23.216;2024-03-25T02:22:23;0.40;;;0.40;;
10731;SDS011;74907;42.812;23.216;2024-03-25T02:24:50;0.27;;;0.27;;
10731;SDS011;74907;42.812;23.216;2024-03-25T02:27:19;0.30;;;0.30;;
10731;SDS011;74907;42.812;23.216;2024-03-25T02:29:46;0.23;;;0.23;;
10731;SDS011;74907;42.812;23.216;2024-03-25T02:32:12;0.30;;;0.30;;
10731;SDS011;74907;42.812;23.216;2024-03-25T02:34:39;0.30;;;0.30;;
10731;SDS011;74907;42.812;23.216;2024-03-25T02:37:06;0.30;;;0.30;;
10731;SDS011;74907;42.812;23.216;2024-03-25T02:39:34;0.40;;;0.40;;
10731;SDS011;74907;42.812;23.216;2024-03-25T02:42:00;0.47;;;0.47;;
10731;SDS011;74907;42.812;23.216;2024-03-25T02:44:28;0.50;;;0.50;;
10731;SDS011;74907;42.812;23.216;2024-03-25T02:46:55;0.50;;;0.50;;
10731;SDS011;74907;42.812;23.216;2024-03-25T02:49:22;0.50;;;0.50;;
10731;SDS011;74907;42.812;23.216;2024-03-25T02:51:48;0.70;;;0.70;;
10731;SDS011;74907;42.812;23.216;2024-03-25T02:54:15;0.70;;;0.70;;
10731;SDS011;74907;42.812;23.216;2024-03-25T02:56:41;0.70;;;0.70;;
10731;SDS011;74907;42.812;23.216;2024-03-25T02:59:07;0.80;;;0.80;;
10731;SDS011;74907;42.812;23.216;2024-03-25T03:01:34;0.83;;;0.83;;
10731;SDS011;74907;42.812;23.216;2024-03-25T03:04:01;1.13;;;1.10;;
10731;SDS011;74907;42.812;23.216;2024-03-25T03:06:27;0.80;;;0.80;;
10731;SDS011;74907;42.812;23.216;2024-03-25T03:08:54;1.07;;;1.07;;
10731;SDS011;74907;42.812;23.216;2024-03-25T03:11:19;1.60;;;1.30;;
10731;SDS011;74907;42.812;23.216;2024-03-25T03:13:46;1.20;;;1.20;;
10731;SDS011;74907;42.812;23.216;2024-03-25T03:16:12;2.40;;;2.30;;
10731;SDS011;74907;42.812;23.216;2024-03-25T03:18:40;3.60;;;3.40;;
10731;SDS011;74907;42.812;23.216;2024-03-25T03:21:06;2.60;;;2.50;;
10731;SDS011;74907;42.812;23.216;2024-03-25T03:23:33;2.20;;;2.10;;
10731;SDS011;74907;42.812;23.216;2024-03-25T03:25:58;2.40;;;2.30;;
10731;SDS011;74907;42.812;23.216;2024-03-25T03:28:25;2.20;;;2.10;;
10731;SDS011;74907;42.812;23.216;2024-03-25T03:30:53;1.90;;;1.70;;
10731;SDS011;74907;42.812;23.216;2024-03-25T03:33:20;2.30;;;2.20;;
10731;SDS011;74907;42.812;23.216;2024-03-25T03:35:47;3.27;;;3.07;;
10731;SDS011;74907;42.812;23.216;2024-03-25T03:38:14;3.10;;;2.90;;
10731;SDS011;74907;42.812;23.216;2024-03-25T03:40:40;3.27;;;3.07;;
10731;SDS011;74907;42.812;23.216;2024-03-25T03:43:07;4.27;;;3.97;;
10731;SDS011;74907;42.812;23.216;2024-03-25T03:45:33;4.40;;;4.10;;
10731;SDS011;74907;42.812;23.216;2024-03-25T03:48:00;3.60;;;3.40;;
10731;SDS011;74907;42.812;23.216;2024-03-25T03:50:26;3.37;;;3.17;;
10731;SDS011;74907;42.812;23.216;2024-03-25T03:52:54;3.90;;;3.60;;
10731;SDS011;74907;42.812;23.216;2024-03-25T03:55:20;4.27;;;3.97;;
10731;SDS011;74907;42.812;23.216;2024-03-25T03:57:46;5.00;;;4.70;;
10731;SDS011;74907;42.812;23.216;2024-03-25T04:00:12;5.33;;;4.93;;
10731;SDS011;74907;42.812;23.216;2024-03-25T04:02:40;6.13;;;5.63;;
10731;SDS011;74907;42.812;23.216;2024-03-25T04:05:06;6.30;;;5.80;;
10731;SDS011;74907;42.812;23.216;2024-03-25T04:07:33;6.80;;;6.20;;
10731;SDS011;74907;42.812;23.216;2024-03-25T04:10:00;5.30;;;4.90;;
10731;SDS011;74907;42.812;23.216;2024-03-25T04:12:28;7.03;;;6.43;;
10731;SDS011;74907;42.812;23.216;2024-03-25T04:14:54;8.70;;;6.07;;
10731;SDS011;74907;42.812;23.216;2024-03-25T04:17:21;6.80;;;6.20;;
10731;SDS011;74907;42.812;23.216;2024-03-25T04:19:47;7.00;;;6.30;;
10731;SDS011;74907;42.812;23.216;2024-03-25T04:22:14;6.50;;;5.97;;
10731;SDS011;74907;42.812;23.216;2024-03-25T04:24:39;7.17;;;6.47;;
10731;SDS011;74907;42.812;23.216;2024-03-25T04:27:08;8.17;;;6.73;;
10731;SDS011;74907;42.812;23.216;2024-03-25T04:29:33;7.30;;;6.10;;
10731;SDS011;74907;42.812;23.216;2024-03-25T04:32:00;6.60;;;6.10;;
10731;SDS011;74907;42.812;23.216;2024-03-25T04:34:27;7.37;;;6.67;;
10731;SDS011;74907;42.812;23.216;2024-03-25T04:36:54;7.47;;;6.77;;
10731;SDS011;74907;42.812;23.216;2024-03-25T04:39:20;6.83;;;6.23;;
10731;SDS011;74907;42.812;23.216;2024-03-25T04:41:46;7.97;;;7.27;;
10731;SDS011;74907;42.812;23.216;2024-03-25T04:44:13;6.73;;;6.17;;
10731;SDS011;74907;42.812;23.216;2024-03-25T04:46:39;10.03;;;8.93;;
10731;SDS011;74907;42.812;23.216;2024-03-25T04:49:05;7.60;;;6.90;;
10731;SDS011;74907;42.812;23.216;2024-03-25T04:51:30;6.90;;;6.30;;
10731;SDS011;74907;42.812;23.216;2024-03-25T04:53:56;7.33;;;6.73;;
10731;SDS011;74907;42.812;23.216;2024-03-25T04:56:22;7.07;;;6.33;;
10731;SDS011;74907;42.812;23.216;2024-03-25T04:58:48;8.23;;;7.43;;
10731;SDS011;74907;42.812;23.216;2024-03-25T05:01:15;8.00;;;7.40;;
10731;SDS011;74907;42.812;23.216;2024-03-25T05:03:41;8.07;;;7.37;;
10731;SDS011;74907;42.812;23.216;2024-03-25T05:06:07;6.90;;;6.23;;
10731;SDS011;74907;42.812;23.216;2024-03-25T05:08:32;7.93;;;7.10;;
10731;SDS011;74907;42.812;23.216;2024-03-25T05:10:58;7.40;;;6.70;;
10731;SDS011;74907;42.812;23.216;2024-03-25T05:13:24;8.77;;;7.87;;
10731;SDS011;74907;42.812;23.216;2024-03-25T05:15:50;10.47;;;9.37;;
10731;SDS011;74907;42.812;23.216;2024-03-25T05:18:17;9.50;;;8.60;;
10731;SDS011;74907;42.812;23.216;2024-03-25T05:20:43;9.10;;;8.17;;
10731;SDS011;74907;42.812;23.216;2024-03-25T05:23:08;7.67;;;7.00;;
10731;SDS011;74907;42.812;23.216;2024-03-25T05:25:34;7.63;;;6.93;;
10731;SDS011;74907;42.812;23.216;2024-03-25T05:28:00;6.57;;;5.97;;
10731;SDS011;74907;42.812;23.216;2024-03-25T05:30:26;8.43;;;7.33;;
10731;SDS011;74907;42.812;23.216;2024-03-25T05:32:52;7.80;;;7.20;;
10731;SDS011;74907;42.812;23.216;2024-03-25T05:35:19;7.93;;;7.20;;
10731;SDS011;74907;42.812;23.216;2024-03-25T05:37:45;8.90;;;8.03;;
10731;SDS011;74907;42.812;23.216;2024-03-25T05:40:11;8.30;;;7.50;;
10731;SDS011;74907;42.812;23.216;2024-03-25T05:42:37;8.87;;;7.73;;
10731;SDS011;74907;42.812;23.216;2024-03-25T05:45:03;7.60;;;7.00;;
10731;SDS011;74907;42.812;23.216;2024-03-25T05:47:29;8.00;;;7.40;;
10731;SDS011;74907;42.812;23.216;2024-03-25T05:49:56;7.03;;;6.40;;
10731;SDS011;74907;42.812;23.216;2024-03-25T05:52:23;9.40;;;8.50;;
10731;SDS011;74907;42.812;23.216;2024-03-25T05:54:49;10.80;;;9.70;;
10731;SDS011;74907;42.812;23.216;2024-03-25T05:57:14;7.93;;;7.40;;
10731;SDS011;74907;42.812;23.216;2024-03-25T05:59:40;9.37;;;8.47;;
10731;SDS011;74907;42.812;23.216;2024-03-25T06:02:06;7.40;;;6.50;;
10731;SDS011;74907;42.812;23.216;2024-03-25T06:04:32;7.70;;;7.10;;
10731;SDS011;74907;42.812;23.216;2024-03-25T06:06:57;7.47;;;6.90;;
10731;SDS011;74907;42.812;23.216;2024-03-25T06:09:24;6.87;;;6.37;;
10731;SDS011;74907;42.812;23.216;2024-03-25T06:11:50;7.63;;;6.93;;
10731;SDS011;74907;42.812;23.216;2024-03-25T06:14:16;8.20;;;7.50;;
10731;SDS011;74907;42.812;23.216;2024-03-25T06:16:42;8.77;;;8.07;;
10731;SDS011;74907;42.812;23.216;2024-03-25T06:19:07;7.10;;;6.50;;
10731;SDS011;74907;42.812;23.216;2024-03-25T06:21:33;8.67;;;7.80;;
10731;SDS011;74907;42.812;23.216;2024-03-25T06:23:59;7.13;;;6.63;;
10731;SDS011;74907;42.812;23.216;2024-03-25T06:26:26;7.20;;;6.70;;
10731;SDS011;74907;42.812;23.216;2024-03-25T06:28:52;8.07;;;7.37;;
10731;SDS011;74907;42.812;23.216;2024-03-25T06:31:17;10.83;;;8.47;;
10731;SDS011;74907;42.812;23.216;2024-03-25T06:34:01;7.00;;;6.50;;
10731;SDS011;74907;42.812;23.216;2024-03-25T06:36:39;7.17;;;6.67;;
10731;SDS011;74907;42.812;23.216;2024-03-25T06:39:05;8.57;;;7.77;;
10731;SDS011;74907;42.812;23.216;2024-03-25T06:41:32;8.27;;;7.57;;
10731;SDS011;74907;42.812;23.216;2024-03-25T06:43:58;8.03;;;7.50;;
10731;SDS011;74907;42.812;23.216;2024-03-25T06:46:24;8.13;;;7.43;;
10731;SDS011;74907;42.812;23.216;2024-03-25T06:48:49;8.53;;;7.83;;
10731;SDS011;74907;42.812;23.216;2024-03-25T06:51:15;6.93;;;6.43;;
10731;SDS011;74907;42.812;23.216;2024-03-25T06:53:41;6.93;;;6.37;;
10731;SDS011;74907;42.812;23.216;2024-03-25T06:56:06;6.97;;;6.47;;
10731;SDS011;74907;42.812;23.216;2024-03-25T06:58:35;6.53;;;6.13;;
10731;SDS011;74907;42.812;23.216;2024-03-25T07:01:03;6.43;;;6.00;;
10731;SDS011;74907;42.812;23.216;2024-03-25T07:03:31;8.87;;;6.10;;
10731;SDS011;74907;42.812;23.216;2024-03-25T07:05:56;7.00;;;6.50;;
10731;SDS011;74907;42.812;23.216;2024-03-25T07:08:22;7.30;;;6.80;;
10731;SDS011;74907;42.812;23.216;2024-03-25T07:10:48;7.33;;;6.73;;
10731;SDS011;74907;42.812;23.216;2024-03-25T07:13:14;7.20;;;6.70;;
10731;SDS011;74907;42.812;23.216;2024-03-25T07:15:42;7.97;;;7.17;;
10731;SDS011;74907;42.812;23.216;2024-03-25T07:18:08;7.33;;;6.77;;
10731;SDS011;74907;42.812;23.216;2024-03-25T07:20:34;6.57;;;6.07;;
10731;SDS011;74907;42.812;23.216;2024-03-25T07:23:00;7.80;;;7.17;;
10731;SDS011;74907;42.812;23.216;2024-03-25T07:25:26;6.90;;;6.40;;
10731;SDS011;74907;42.812;23.216;2024-03-25T07:27:51;6.20;;;5.80;;
10731;SDS011;74907;42.812;23.216;2024-03-25T07:30:17;6.83;;;6.23;;
10731;SDS011;74907;42.812;23.216;2024-03-25T07:32:45;5.77;;;5.37;;
10731;SDS011;74907;42.812;23.216;2024-03-25T07:35:10;6.87;;;6.37;;
10731;SDS011;74907;42.812;23.216;2024-03-25T07:37:36;6.30;;;5.90;;
10731;SDS011;74907;42.812;23.216;2024-03-25T07:40:02;15.63;;;11.90;;
10731;SDS011;74907;42.812;23.216;2024-03-25T07:42:28;6.47;;;6.03;;
10731;SDS011;74907;42.812;23.216;2024-03-25T07:44:54;7.83;;;7.23;;
10731;SDS011;74907;42.812;23.216;2024-03-25T07:47:20;8.03;;;7.33;;
10731;SDS011;74907;42.812;23.216;2024-03-25T07:49:47;8.17;;;7.47;;
10731;SDS011;74907;42.812;23.216;2024-03-25T07:52:13;7.43;;;6.90;;
10731;SDS011;74907;42.812;23.216;2024-03-25T07:54:39;6.60;;;6.10;;
10731;SDS011;74907;42.812;23.216;2024-03-25T07:57:04;6.63;;;6.17;;
10731;SDS011;74907;42.812;23.216;2024-03-25T07:59:30;6.73;;;6.23;;
10731;SDS011;74907;42.812;23.216;2024-03-25T08:01:56;6.30;;;5.90;;
10731;SDS011;74907;42.812;23.216;2024-03-25T08:04:22;6.30;;;5.80;;
10731;SDS011;74907;42.812;23.216;2024-03-25T08:06:49;5.93;;;5.50;;
10731;SDS011;74907;42.812;23.216;2024-03-25T08:09:14;6.13;;;5.63;;
10731;SDS011;74907;42.812;23.216;2024-03-25T08:11:40;5.67;;;5.37;;
10731;SDS011;74907;42.812;23.216;2024-03-25T08:14:06;5.80;;;5.37;;
10731;SDS011;74907;42.812;23.216;2024-03-25T08:16:32;6.50;;;5.97;;
10731;SDS011;74907;42.812;23.216;2024-03-25T08:18:57;5.87;;;5.37;;
10731;SDS011;74907;42.812;23.216;2024-03-25T08:21:23;6.37;;;5.97;;
10731;SDS011;74907;42.812;23.216;2024-03-25T08:23:50;5.90;;;5.50;;
10731;SDS011;74907;42.812;23.216;2024-03-25T08:26:16;5.23;;;4.83;;
10731;SDS011;74907;42.812;23.216;2024-03-25T08:28:42;6.60;;;5.70;;
10731;SDS011;74907;42.812;23.216;2024-03-25T08:31:08;6.90;;;6.40;;
10731;SDS011;74907;42.812;23.216;2024-03-25T08:33:33;7.03;;;6.50;;
10731;SDS011;74907;42.812;23.216;2024-03-25T08:35:59;6.20;;;5.80;;
10731;SDS011;74907;42.812;23.216;2024-03-25T08:38:25;6.23;;;5.73;;
10731;SDS011;74907;42.812;23.216;2024-03-25T08:40:52;5.50;;;5.10;;
10731;SDS011;74907;42.812;23.216;2024-03-25T08:43:18;6.57;;;6.07;;
10731;SDS011;74907;42.812;23.216;2024-03-25T08:45:43;6.20;;;5.70;;
10731;SDS011;74907;42.812;23.216;2024-03-25T08:48:09;5.80;;;5.40;;
10731;SDS011;74907;42.812;23.216;2024-03-25T08:50:35;7.50;;;6.87;;
10731;SDS011;74907;42.812;23.216;2024-03-25T08:53:01;5.37;;;4.97;;
10731;SDS011;74907;42.812;23.216;2024-03-25T08:55:28;6.27;;;5.87;;
10731;SDS011;74907;42.812;23.216;2024-03-25T08:57:55;7.37;;;6.73;;
10731;SDS011;74907;42.812;23.216;2024-03-25T09:00:21;8.23;;;7.43;;
10731;SDS011;74907;42.812;23.216;2024-03-25T09:02:47;6.27;;;5.87;;
10731;SDS011;74907;42.812;23.216;2024-03-25T09:05:13;6.07;;;5.57;;
10731;SDS011;74907;42.812;23.216;2024-03-25T09:07:38;7.07;;;6.57;;
10731;SDS011;74907;42.812;23.216;2024-03-25T09:10:05;8.43;;;7.73;;
10731;SDS011;74907;42.812;23.216;2024-03-25T09:12:49;6.27;;;5.87;;
10731;SDS011;74907;42.812;23.216;2024-03-25T09:15:16;6.03;;;5.57;;
10731;SDS011;74907;42.812;23.216;2024-03-25T09:17:42;5.73;;;5.33;;
10731;SDS011;74907;42.812;23.216;2024-03-25T09:20:08;8.33;;;7.73;;
10731;SDS011;74907;42.812;23.216;2024-03-25T09:22:35;7.40;;;6.60;;
10731;SDS011;74907;42.812;23.216;2024-03-25T09:25:01;5.73;;;5.13;;
10731;SDS011;74907;42.812;23.216;2024-03-25T09:27:26;5.53;;;4.90;;
10731;SDS011;74907;42.812;23.216;2024-03-25T09:29:52;6.20;;;5.70;;
10731;SDS011;74907;42.812;23.216;2024-03-25T09:32:19;5.50;;;5.10;;
10731;SDS011;74907;42.812;23.216;2024-03-25T09:34:45;5.43;;;5.00;;
10731;SDS011;74907;42.812;23.216;2024-03-25T09:37:11;6.50;;;4.97;;
10731;SDS011;74907;42.812;23.216;2024-03-25T09:39:36;5.50;;;5.20;;
10731;SDS011;74907;42.812;23.216;2024-03-25T09:42:03;5.63;;;5.23;;
10731;SDS011;74907;42.812;23.216;2024-03-25T09:44:33;5.00;;;4.70;;
10731;SDS011;74907;42.812;23.216;2024-03-25T09:46:58;5.47;;;5.17;;
10731;SDS011;74907;42.812;23.216;2024-03-25T09:49:27;4.90;;;4.60;;
10731;SDS011;74907;42.812;23.216;2024-03-25T09:51:54;5.00;;;4.70;;
10731;SDS011;74907;42.812;23.216;2024-03-25T09:54:20;4.07;;;3.77;;
10731;SDS011;74907;42.812;23.216;2024-03-25T09:56:45;5.17;;;4.77;;
10731;SDS011;74907;42.812;23.216;2024-03-25T09:59:13;5.97;;;5.57;;
10731;SDS011;74907;42.812;23.216;2024-03-25T10:01:39;4.57;;;4.27;;
10731;SDS011;74907;42.812;23.216;2024-03-25T10:04:05;5.43;;;5.00;;
10731;SDS011;74907;42.812;23.216;2024-03-25T10:06:32;4.60;;;4.30;;
10731;SDS011;74907;42.812;23.216;2024-03-25T10:08:58;5.20;;;4.90;;
10731;SDS011;74907;42.812;23.216;2024-03-25T10:11:24;6.00;;;5.50;;
10731;SDS011;74907;42.812;23.216;2024-03-25T10:13:50;5.07;;;4.67;;
10731;SDS011;74907;42.812;23.216;2024-03-25T10:16:16;5.43;;;4.93;;
10731;SDS011;74907;42.812;23.216;2024-03-25T10:18:42;5.70;;;5.20;;
10731;SDS011;74907;42.812;23.216;2024-03-25T10:21:09;3.80;;;3.60;;
10731;SDS011;74907;42.812;23.216;2024-03-25T10:23:39;3.20;;;3.10;;
10731;SDS011;74907;42.812;23.216;2024-03-25T10:26:05;4.33;;;4.03;;
10731;SDS011;74907;42.812;23.216;2024-03-25T10:28:31;4.10;;;3.90;;
10731;SDS011;74907;42.812;23.216;2024-03-25T10:31:02;4.47;;;3.73;;
10731;SDS011;74907;42.812;23.216;2024-03-25T10:33:29;3.50;;;3.30;;
10731;SDS011;74907;42.812;23.216;2024-03-25T10:35:54;4.23;;;3.93;;
10731;SDS011;74907;42.812;23.216;2024-03-25T10:38:23;4.20;;;4.00;;
10731;SDS011;74907;42.812;23.216;2024-03-25T10:40:51;4.13;;;3.83;;
10731;SDS011;74907;42.812;23.216;2024-03-25T10:43:20;4.90;;;4.50;;
10731;SDS011;74907;42.812;23.216;2024-03-25T10:45:47;3.60;;;3.40;;
10731;SDS011;74907;42.812;23.216;2024-03-25T10:48:15;3.50;;;3.20;;
10731;SDS011;74907;42.812;23.216;2024-03-25T10:50:44;3.77;;;3.57;;
10731;SDS011;74907;42.812;23.216;2024-03-25T10:53:11;3.63;;;3.30;;
10731;SDS011;74907;42.812;23.216;2024-03-25T10:55:39;3.60;;;3.30;;
10731;SDS011;74907;42.812;23.216;2024-03-25T10:58:08;3.60;;;3.37;;
10731;SDS011;74907;42.812;23.216;2024-03-25T11:00:34;3.97;;;3.67;;
10731;SDS011;74907;42.812;23.216;2024-03-25T11:03:00;3.83;;;3.20;;
10731;SDS011;74907;42.812;23.216;2024-03-25T11:05:28;2.60;;;2.43;;
10731;SDS011;74907;42.812;23.216;2024-03-25T11:07:54;3.40;;;3.20;;
10731;SDS011;74907;42.812;23.216;2024-03-25T11:10:28;3.47;;;3.17;;
10731;SDS011;74907;42.812;23.216;2024-03-25T11:12:54;2.90;;;2.70;;
10731;SDS011;74907;42.812;23.216;2024-03-25T11:15:22;3.37;;;3.13;;
10731;SDS011;74907;42.812;23.216;2024-03-25T11:17:48;4.43;;;4.13;;
10731;SDS011;74907;42.812;23.216;2024-03-25T11:20:15;3.90;;;3.60;;
10731;SDS011;74907;42.812;23.216;2024-03-25T11:22:47;3.77;;;3.50;;
10731;SDS011;74907;42.812;23.216;2024-03-25T11:25:13;4.23;;;3.93;;
10731;SDS011;74907;42.812;23.216;2024-03-25T11:27:42;3.93;;;3.73;;
10731;SDS011;74907;42.812;23.216;2024-03-25T11:30:09;4.07;;;3.77;;
10731;SDS011;74907;42.812;23.216;2024-03-25T11:32:44;4.10;;;3.70;;
10731;SDS011;74907;42.812;23.216;2024-03-25T11:35:11;3.47;;;3.17;;
10731;SDS011;74907;42.812;23.216;2024-03-25T11:37:40;3.83;;;3.60;;
10731;SDS011;74907;42.812;23.216;2024-03-25T11:40:07;3.90;;;3.70;;
10731;SDS011;74907;42.812;23.216;2024-03-25T11:42:33;3.47;;;3.27;;
10731;SDS011;74907;42.812;23.216;2024-03-25T11:45:00;3.07;;;2.87;;
10731;SDS011;74907;42.812;23.216;2024-03-25T11:47:26;3.00;;;2.80;;
10731;SDS011;74907;42.812;23.216;2024-03-25T11:49:53;3.33;;;3.13;;
10731;SDS011;74907;42.812;23.216;2024-03-25T11:52:19;3.23;;;3.03;;
10731;SDS011;74907;42.812;23.216;2024-03-25T11:54:44;3.53;;;3.33;;
10731;SDS011;74907;42.812;23.216;2024-03-25T11:57:10;3.00;;;2.80;;
10731;SDS011;74907;42.812;23.216;2024-03-25T11:59:36;3.20;;;3.00;;
10731;SDS011;74907;42.812;23.216;2024-03-25T12:02:05;3.20;;;3.10;;
10731;SDS011;74907;42.812;23.216;2024-03-25T12:04:31;3.53;;;3.33;;
10731;SDS011;74907;42.812;23.216;2024-03-25T12:06:58;3.33;;;3.20;;
10731;SDS011;74907;42.812;23.216;2024-03-25T12:09:24;3.30;;;2.80;;
10731;SDS011;74907;42.812;23.216;2024-03-25T12:12:08;3.83;;;3.47;;
10731;SDS011;74907;42.812;23.216;2024-03-25T12:14:34;3.00;;;2.90;;
10731;SDS011;74907;42.812;23.216;2024-03-25T12:17:00;2.60;;;2.50;;
10731;SDS011;74907;42.812;23.216;2024-03-25T12:19:26;2.90;;;2.70;;
10731;SDS011;74907;42.812;23.216;2024-03-25T12:22:00;3.03;;;2.90;;
10731;SDS011;74907;42.812;23.216;2024-03-25T12:24:26;3.00;;;2.80;;
10731;SDS011;74907;42.812;23.216;2024-03-25T12:26:52;2.80;;;2.70;;
10731;SDS011;74907;42.812;23.216;2024-03-25T12:29:18;3.13;;;2.87;;
10731;SDS011;74907;42.812;23.216;2024-03-25T12:31:52;3.10;;;2.67;;
10731;SDS011;74907;42.812;23.216;2024-03-25T12:34:19;2.73;;;2.53;;
10731;SDS011;74907;42.812;23.216;2024-03-25T12:36:45;2.40;;;2.30;;
10731;SDS011;74907;42.812;23.216;2024-03-25T12:39:16;2.40;;;2.27;;
10731;SDS011;74907;42.812;23.216;2024-03-25T12:41:42;2.40;;;2.30;;
10731;SDS011;74907;42.812;23.216;2024-03-25T12:44:08;2.00;;;1.90;;
10731;SDS011;74907;42.812;23.216;2024-03-25T12:46:34;2.60;;;2.50;;
10731;SDS011;74907;42.812;23.216;2024-03-25T12:48:59;2.93;;;2.23;;
10731;SDS011;74907;42.812;23.216;2024-03-25T12:51:25;2.60;;;2.50;;
10731;SDS011;74907;42.812;23.216;2024-03-25T12:53:51;2.93;;;2.73;;
10731;SDS011;74907;42.812;23.216;2024-03-25T12:56:18;3.53;;;3.33;;
10731;SDS011;74907;42.812;23.216;2024-03-25T12:58:44;3.60;;;3.40;;
10731;SDS011;74907;42.812;23.216;2024-03-25T13:01:09;3.00;;;2.80;;
10731;SDS011;74907;42.812;23.216;2024-03-25T13:03:35;3.43;;;3.13;;
10731;SDS011;74907;42.812;23.216;2024-03-25T13:06:01;3.50;;;3.20;;
10731;SDS011;74907;42.812;23.216;2024-03-25T13:08:27;3.60;;;3.30;;
10731;SDS011;74907;42.812;23.216;2024-03-25T13:10:52;3.00;;;2.80;;
10731;SDS011;74907;42.812;23.216;2024-03-25T13:13:20;4.43;;;4.03;;
10731;SDS011;74907;42.812;23.216;2024-03-25T13:15:45;2.77;;;2.67;;
10731;SDS011;74907;42.812;23.216;2024-03-25T13:18:11;2.53;;;2.43;;
10731;SDS011;74907;42.812;23.216;2024-03-25T13:20:37;2.20;;;2.10;;
10731;SDS011;74907;42.812;23.216;2024-03-25T13:23:03;2.57;;;2.47;;
10731;SDS011;74907;42.812;23.216;2024-03-25T13:25:29;2.40;;;2.27;;
10731;SDS011;74907;42.812;23.216;2024-03-25T13:27:55;2.10;;;2.00;;
10731;SDS011;74907;42.812;23.216;2024-03-25T13:30:22;2.43;;;2.23;;
10731;SDS011;74907;42.812;23.216;2024-03-25T13:32:48;2.33;;;2.23;;
10731;SDS011;74907;42.812;23.216;2024-03-25T13:35:13;2.33;;;2.23;;
10731;SDS011;74907;42.812;23.216;2024-03-25T13:37:39;2.50;;;2.30;;
10731;SDS011;74907;42.812;23.216;2024-03-25T13:40:05;2.90;;;2.57;;
10731;SDS011;74907;42.812;23.216;2024-03-25T13:42:32;2.60;;;2.40;;
10731;SDS011;74907;42.812;23.216;2024-03-25T13:44:58;2.83;;;1.77;;
10731;SDS011;74907;42.812;23.216;2024-03-25T13:47:25;2.93;;;2.70;;
10731;SDS011;74907;42.812;23.216;2024-03-25T13:49:59;2.80;;;2.57;;
10731;SDS011;74907;42.812;23.216;2024-03-25T13:52:25;3.47;;;3.17;;
10731;SDS011;74907;42.812;23.216;2024-03-25T13:54:51;3.00;;;2.37;;
10731;SDS011;74907;42.812;23.216;2024-03-25T13:57:17;1.70;;;1.60;;
10731;SDS011;74907;42.812;23.216;2024-03-25T13:59:43;1.53;;;1.53;;
10731;SDS011;74907;42.812;23.216;2024-03-25T14:02:08;1.60;;;1.50;;
10731;SDS011;74907;42.812;23.216;2024-03-25T14:04:35;2.30;;;1.90;;
10731;SDS011;74907;42.812;23.216;2024-03-25T14:07:01;2.57;;;2.40;;
10731;SDS011;74907;42.812;23.216;2024-03-25T14:09:27;1.80;;;1.70;;
10731;SDS011;74907;42.812;23.216;2024-03-25T14:11:53;1.60;;;1.60;;
10731;SDS011;74907;42.812;23.216;2024-03-25T14:14:19;3.27;;;3.07;;
10731;SDS011;74907;42.812;23.216;2024-03-25T14:16:45;2.47;;;2.37;;
10731;SDS011;74907;42.812;23.216;2024-03-25T14:19:10;3.53;;;2.47;;
10731;SDS011;74907;42.812;23.216;2024-03-25T14:21:38;2.90;;;2.70;;
10731;SDS011;74907;42.812;23.216;2024-03-25T14:24:04;2.50;;;2.40;;
10731;SDS011;74907;42.812;23.216;2024-03-25T14:26:30;2.10;;;2.00;;
10731;SDS011;74907;42.812;23.216;2024-03-25T14:28:56;2.50;;;2.33;;